sensor_id;sensor_type;location;lat;lon;timestamp;pressure;altitude;pressure_sealevel;temperature;humidity
46199;BME280;31928;52.104;10.030;2023-02-28T00:01:14;102061.72;;;5.33;48.48
46199;BME280;31928;52.104;10.030;2023-02-28T00:03:41;102071.50;;;5.32;48.28
46199;BME280;31928;52.104;10.030;2023-02-28T00:06:08;102069.28;;;5.56;46.86
46199;BME280;31928;52.104;10.030;2023-02-28T00:08:38;102064.25;;;5.34;48.73
46199;BME280;31928;52.104;10.030;2023-02-28T00:11:06;102062.44;;;5.53;46.55
46199;BME280;31928;52.104;10.030;2023-02-28T00:13:38;102063.28;;;5.35;48.27
46199;BME280;31928;52.104;10.030;2023-02-28T00:16:11;102065.78;;;5.27;48.75
46199;BME280;31928;52.104;10.030;2023-02-28T00:18:39;102068.16;;;5.21;48.61
46199;BME280;31928;52.104;10.030;2023-02-28T00:21:06;102071.94;;;5.18;48.77
46199;BME280;31928;52.104;10.030;2023-02-28T00:23:34;102074.84;;;5.15;49.00
46199;BME280;31928;52.104;10.030;2023-02-28T00:26:01;102069.81;;;5.12;48.77
46199;BME280;31928;52.104;10.030;2023-02-28T00:28:27;102072.75;;;5.09;48.70
46199;BME280;31928;52.104;10.030;2023-02-28T00:30:54;102064.53;;;5.31;46.84
46199;BME280;31928;52.104;10.030;2023-02-28T00:33:21;102070.09;;;5.09;48.46
46199;BME280;31928;52.104;10.030;2023-02-28T00:35:47;102068.69;;;5.05;48.57
46199;BME280;31928;52.104;10.030;2023-02-28T00:38:15;102068.09;;;5.02;48.58
46199;BME280;31928;52.104;10.030;2023-02-28T00:40:41;102063.38;;;5.24;46.93
46199;BME280;31928;52.104;10.030;2023-02-28T00:43:08;102060.28;;;5.00;48.15
46199;BME280;31928;52.104;10.030;2023-02-28T00:45:35;102060.81;;;4.94;48.27
46199;BME280;31928;52.104;10.030;2023-02-28T00:48:01;102061.22;;;4.90;48.22
46199;BME280;31928;52.104;10.030;2023-02-28T00:50:28;102061.63;;;4.85;48.31
46199;BME280;31928;52.104;10.030;2023-02-28T00:52:54;102075.19;;;4.82;48.12
46199;BME280;31928;52.104;10.030;2023-02-28T00:55:21;102064.94;;;4.78;48.52
46199;BME280;31928;52.104;10.030;2023-02-28T00:57:47;102061.75;;;4.75;48.82
46199;BME280;31928;52.104;10.030;2023-02-28T01:00:14;102066.59;;;4.70;48.82
46199;BME280;31928;52.104;10.030;2023-02-28T01:02:41;102065.19;;;4.66;49.10
46199;BME280;31928;52.104;10.030;2023-02-28T01:05:08;102061.00;;;4.63;48.65
46199;BME280;31928;52.104;10.030;2023-02-28T01:07:34;102068.91;;;4.83;46.97
46199;BME280;31928;52.104;10.030;2023-02-28T01:10:01;102061.38;;;4.59;48.47
46199;BME280;31928;52.104;10.030;2023-02-28T01:12:27;102067.09;;;4.54;48.52
46199;BME280;31928;52.104;10.030;2023-02-28T01:14:56;102070.16;;;4.50;48.89
46199;BME280;31928;52.104;10.030;2023-02-28T01:17:22;102075.72;;;4.47;48.67
46199;BME280;31928;52.104;10.030;2023-02-28T01:19:49;102076.84;;;4.44;48.97
46199;BME280;31928;52.104;10.030;2023-02-28T01:22:15;102070.94;;;4.41;48.95
46199;BME280;31928;52.104;10.030;2023-02-28T01:24:42;102067.59;;;4.39;48.87
46199;BME280;31928;52.104;10.030;2023-02-28T01:27:08;102066.19;;;4.35;48.75
46199;BME280;31928;52.104;10.030;2023-02-28T01:29:35;102062.94;;;4.31;48.97
46199;BME280;31928;52.104;10.030;2023-02-28T01:32:02;102058.59;;;4.30;48.74
46199;BME280;31928;52.104;10.030;2023-02-28T01:34:29;102057.19;;;4.26;48.48
46199;BME280;31928;52.104;10.030;2023-02-28T01:36:55;102073.09;;;4.26;48.94
46199;BME280;31928;52.104;10.030;2023-02-28T01:39:26;102063.59;;;4.24;48.97
46199;BME280;31928;52.104;10.030;2023-02-28T01:41:52;102060.47;;;4.19;49.05
46199;BME280;31928;52.104;10.030;2023-02-28T01:47:27;102060.75;;;4.16;49.18
46199;BME280;31928;52.104;10.030;2023-02-28T01:49:55;102050.66;;;4.10;48.81
46199;BME280;31928;52.104;10.030;2023-02-28T01:52:22;102043.53;;;4.31;47.41
46199;BME280;31928;52.104;10.030;2023-02-28T01:54:51;102050.66;;;4.10;48.73
46199;BME280;31928;52.104;10.030;2023-02-28T01:57:22;102035.97;;;4.06;48.73
46199;BME280;31928;52.104;10.030;2023-02-28T01:59:54;102033.59;;;4.03;48.93
46199;BME280;31928;52.104;10.030;2023-02-28T02:02:23;102039.41;;;3.97;48.42
46199;BME280;31928;52.104;10.030;2023-02-28T02:04:55;102032.16;;;3.99;48.58
46199;BME280;31928;52.104;10.030;2023-02-28T02:07:23;102035.47;;;3.92;48.58
46199;BME280;31928;52.104;10.030;2023-02-28T02:10:01;102030.75;;;3.95;48.76
46199;BME280;31928;52.104;10.030;2023-02-28T02:17:41;102034.88;;;3.88;48.84
46199;BME280;31928;52.104;10.030;2023-02-28T02:23:32;102021.88;;;3.85;48.27
46199;BME280;31928;52.104;10.030;2023-02-28T02:32:07;102032.53;;;3.74;48.84
46199;BME280;31928;52.104;10.030;2023-02-28T02:34:42;102020.78;;;3.67;49.13
46199;BME280;31928;52.104;10.030;2023-02-28T02:39:49;102018.25;;;3.66;49.52
46199;BME280;31928;52.104;10.030;2023-02-28T02:42:31;102021.06;;;3.64;49.32
46199;BME280;31928;52.104;10.030;2023-02-28T02:45:06;102012.63;;;3.59;49.83
46199;BME280;31928;52.104;10.030;2023-02-28T02:47:35;102017.47;;;3.55;49.93
46199;BME280;31928;52.104;10.030;2023-02-28T02:50:11;102017.22;;;3.57;49.88
46199;BME280;31928;52.104;10.030;2023-02-28T02:52:42;102027.13;;;3.56;50.23
46199;BME280;31928;52.104;10.030;2023-02-28T02:55:12;102032.66;;;3.53;50.26
46199;BME280;31928;52.104;10.030;2023-02-28T02:57:52;102028.91;;;3.55;49.99
46199;BME280;31928;52.104;10.030;2023-02-28T03:00:26;102035.56;;;3.50;50.18
46199;BME280;31928;52.104;10.030;2023-02-28T03:02:55;102035.97;;;3.45;50.43
46199;BME280;31928;52.104;10.030;2023-02-28T03:05:28;102035.84;;;3.47;50.73
46199;BME280;31928;52.104;10.030;2023-02-28T03:07:56;102036.19;;;3.42;51.03
46199;BME280;31928;52.104;10.030;2023-02-28T03:10:48;102034.34;;;3.54;50.13
46199;BME280;31928;52.104;10.030;2023-02-28T03:16:23;102031.97;;;3.51;50.08
46199;BME280;31928;52.104;10.030;2023-02-28T03:19:01;102036.19;;;3.42;51.11
46199;BME280;31928;52.104;10.030;2023-02-28T03:24:19;102034.16;;;3.46;50.92
46199;BME280;31928;52.104;10.030;2023-02-28T03:26:57;102043.78;;;3.47;50.55
46199;BME280;31928;52.104;10.030;2023-02-28T03:29:37;102041.28;;;3.45;50.77
46199;BME280;31928;52.104;10.030;2023-02-28T03:32:14;102047.53;;;3.44;50.50
46199;BME280;31928;52.104;10.030;2023-02-28T03:34:58;102044.03;;;3.44;50.51
46199;BME280;31928;52.104;10.030;2023-02-28T03:37:31;102049.00;;;3.37;50.32
46199;BME280;31928;52.104;10.030;2023-02-28T03:40:08;102049.84;;;3.38;50.56
46199;BME280;31928;52.104;10.030;2023-02-28T03:42:42;102057.06;;;3.36;50.51
46199;BME280;31928;52.104;10.030;2023-02-28T03:45:16;102043.13;;;3.34;50.57
46199;BME280;31928;52.104;10.030;2023-02-28T03:48:11;102047.00;;;3.30;50.43
46199;BME280;31928;52.104;10.030;2023-02-28T03:50:40;102043.63;;;3.28;50.33
46199;BME280;31928;52.104;10.030;2023-02-28T03:53:18;102048.91;;;3.28;50.07
46199;BME280;31928;52.104;10.030;2023-02-28T03:55:49;102041.47;;;3.22;50.63
46199;BME280;31928;52.104;10.030;2023-02-28T04:01:25;102042.19;;;3.24;49.99
46199;BME280;31928;52.104;10.030;2023-02-28T04:03:54;102040.41;;;3.13;50.11
46199;BME280;31928;52.104;10.030;2023-02-28T04:06:22;102043.00;;;3.35;48.45
46199;BME280;31928;52.104;10.030;2023-02-28T04:08:49;102043.75;;;3.15;50.00
46199;BME280;31928;52.104;10.030;2023-02-28T04:11:23;102056.19;;;3.15;50.16
46199;BME280;31928;52.104;10.030;2023-02-28T04:13:50;102050.66;;;3.07;50.19
46199;BME280;31928;52.104;10.030;2023-02-28T04:16:17;102051.63;;;3.06;50.31
46199;BME280;31928;52.104;10.030;2023-02-28T04:18:59;102053.69;;;3.02;50.43
46199;BME280;31928;52.104;10.030;2023-02-28T04:21:29;102048.63;;;2.99;50.66
46199;BME280;31928;52.104;10.030;2023-02-28T04:23:57;102055.03;;;2.97;50.98
46199;BME280;31928;52.104;10.030;2023-02-28T04:26:34;102052.13;;;3.00;50.69
46199;BME280;31928;52.104;10.030;2023-02-28T04:29:03;102057.81;;;2.96;50.80
46199;BME280;31928;52.104;10.030;2023-02-28T04:31:30;102052.75;;;2.93;50.77
46199;BME280;31928;52.104;10.030;2023-02-28T04:33:57;102062.50;;;2.92;50.99
46199;BME280;31928;52.104;10.030;2023-02-28T04:36:24;102060.84;;;2.91;50.88
46199;BME280;31928;52.104;10.030;2023-02-28T04:38:51;102062.75;;;2.89;51.36
46199;BME280;31928;52.104;10.030;2023-02-28T04:41:18;102060.06;;;3.11;49.10
46199;BME280;31928;52.104;10.030;2023-02-28T04:43:44;102065.28;;;2.91;50.89
46199;BME280;31928;52.104;10.030;2023-02-28T04:46:11;102062.75;;;2.89;50.96
46199;BME280;31928;52.104;10.030;2023-02-28T04:48:39;102066.34;;;2.88;51.55
46199;BME280;31928;52.104;10.030;2023-02-28T04:51:10;102066.22;;;2.90;54.29
46199;BME280;31928;52.104;10.030;2023-02-28T04:53:37;102063.09;;;2.96;58.68
46199;BME280;31928;52.104;10.030;2023-02-28T04:56:06;102070.59;;;3.22;62.24
46199;BME280;31928;52.104;10.030;2023-02-28T04:58:33;102063.00;;;3.59;64.92
46199;BME280;31928;52.104;10.030;2023-02-28T05:01:06;102066.56;;;4.10;66.56
46199;BME280;31928;52.104;10.030;2023-02-28T05:03:39;102058.47;;;4.62;67.79
46199;BME280;31928;52.104;10.030;2023-02-28T05:06:10;102050.91;;;5.15;68.31
46199;BME280;31928;52.104;10.030;2023-02-28T05:08:37;102048.16;;;5.64;68.24
46199;BME280;31928;52.104;10.030;2023-02-28T05:11:29;102049.66;;;6.13;68.15
46199;BME280;31928;52.104;10.030;2023-02-28T05:14:03;102046.97;;;6.59;67.07
46199;BME280;31928;52.104;10.030;2023-02-28T05:16:31;102044.56;;;6.92;66.13
46199;BME280;31928;52.104;10.030;2023-02-28T05:18:58;102044.38;;;7.20;58.78
46199;BME280;31928;52.104;10.030;2023-02-28T05:21:32;102036.78;;;7.43;52.79
46199;BME280;31928;52.104;10.030;2023-02-28T05:24:25;102037.00;;;7.67;51.16
46199;BME280;31928;52.104;10.030;2023-02-28T05:26:53;102040.75;;;7.56;48.00
46199;BME280;31928;52.104;10.030;2023-02-28T05:29:20;102039.00;;;7.47;46.62
46199;BME280;31928;52.104;10.030;2023-02-28T05:31:47;102032.53;;;7.32;46.71
46199;BME280;31928;52.104;10.030;2023-02-28T05:34:14;102029.00;;;7.15;45.95
46199;BME280;31928;52.104;10.030;2023-02-28T05:36:42;102038.41;;;6.92;46.13
46199;BME280;31928;52.104;10.030;2023-02-28T05:39:09;102035.50;;;7.03;48.34
46199;BME280;31928;52.104;10.030;2023-02-28T05:41:42;102043.41;;;6.68;55.22
46199;BME280;31928;52.104;10.030;2023-02-28T05:44:10;102044.44;;;6.57;57.96
46199;BME280;31928;52.104;10.030;2023-02-28T05:46:37;102044.75;;;6.55;57.76
46199;BME280;31928;52.104;10.030;2023-02-28T05:49:04;102051.78;;;6.56;57.98
46199;BME280;31928;52.104;10.030;2023-02-28T05:51:31;102045.91;;;6.79;53.88
46199;BME280;31928;52.104;10.030;2023-02-28T05:54:01;102053.31;;;6.58;50.71
46199;BME280;31928;52.104;10.030;2023-02-28T05:56:28;102049.25;;;6.54;51.22
46199;BME280;31928;52.104;10.030;2023-02-28T05:58:54;102051.78;;;6.46;49.51
46199;BME280;31928;52.104;10.030;2023-02-28T06:03:59;102056.19;;;6.28;47.54
46199;BME280;31928;52.104;10.030;2023-02-28T06:06:26;102062.81;;;6.15;47.12
46199;BME280;31928;52.104;10.030;2023-02-28T06:08:53;102060.59;;;6.01;46.77
46199;BME280;31928;52.104;10.030;2023-02-28T06:11:20;102063.66;;;6.15;47.47
46199;BME280;31928;52.104;10.030;2023-02-28T06:13:47;102069.31;;;5.75;47.24
46199;BME280;31928;52.104;10.030;2023-02-28T06:16:14;102064.69;;;5.58;47.10
46199;BME280;31928;52.104;10.030;2023-02-28T06:18:40;102063.41;;;5.43;47.11
46199;BME280;31928;52.104;10.030;2023-02-28T06:21:07;102076.28;;;5.29;47.34
46199;BME280;31928;52.104;10.030;2023-02-28T06:23:35;102078.59;;;5.13;47.56
46199;BME280;31928;52.104;10.030;2023-02-28T06:26:01;102078.22;;;5.27;47.44
46199;BME280;31928;52.104;10.030;2023-02-28T06:28:28;102087.91;;;4.88;47.99
46199;BME280;31928;52.104;10.030;2023-02-28T06:30:55;102084.66;;;4.75;48.05
46199;BME280;31928;52.104;10.030;2023-02-28T06:33:21;102080.56;;;4.62;48.25
46199;BME280;31928;52.104;10.030;2023-02-28T06:35:51;102090.88;;;4.56;48.56
46199;BME280;31928;52.104;10.030;2023-02-28T06:38:18;102095.84;;;4.40;48.51
46199;BME280;31928;52.104;10.030;2023-02-28T06:40:53;102096.06;;;4.37;48.79
46199;BME280;31928;52.104;10.030;2023-02-28T06:43:20;102095.44;;;4.24;49.38
46199;BME280;31928;52.104;10.030;2023-02-28T06:45:47;102105.75;;;4.17;49.20
46199;BME280;31928;52.104;10.030;2023-02-28T06:48:14;102103.50;;;4.13;49.48
46199;BME280;31928;52.104;10.030;2023-02-28T06:50:40;102103.44;;;4.33;48.51
46199;BME280;31928;52.104;10.030;2023-02-28T06:53:07;102119.09;;;4.07;49.58
46199;BME280;31928;52.104;10.030;2023-02-28T06:55:34;102108.00;;;4.02;50.10
46199;BME280;31928;52.104;10.030;2023-02-28T06:58:00;102109.13;;;3.99;50.25
46199;BME280;31928;52.104;10.030;2023-02-28T07:00:28;102105.03;;;3.95;50.26
46199;BME280;31928;52.104;10.030;2023-02-28T07:02:55;102116.75;;;3.93;50.48
46199;BME280;31928;52.104;10.030;2023-02-28T07:05:21;102113.97;;;4.15;49.30
46199;BME280;31928;52.104;10.030;2023-02-28T07:07:48;102109.63;;;3.93;50.66
46199;BME280;31928;52.104;10.030;2023-02-28T07:10:15;102117.84;;;3.90;51.24
46199;BME280;31928;52.104;10.030;2023-02-28T07:12:45;102117.84;;;3.90;51.11
46199;BME280;31928;52.104;10.030;2023-02-28T07:15:12;102118.66;;;3.91;51.07
46199;BME280;31928;52.104;10.030;2023-02-28T07:17:38;102122.88;;;3.93;50.84
46199;BME280;31928;52.104;10.030;2023-02-28T07:20:05;102124.31;;;3.97;51.08
46199;BME280;31928;52.104;10.030;2023-02-28T07:22:32;102124.31;;;3.97;51.04
46199;BME280;31928;52.104;10.030;2023-02-28T07:24:59;102123.22;;;4.00;50.59
46199;BME280;31928;52.104;10.030;2023-02-28T07:27:25;102130.06;;;4.02;50.68
46199;BME280;31928;52.104;10.030;2023-02-28T07:29:53;102130.06;;;4.02;50.89
46199;BME280;31928;52.104;10.030;2023-02-28T07:32:19;102127.41;;;4.02;50.99
46199;BME280;31928;52.104;10.030;2023-02-28T07:34:46;102138.03;;;4.02;51.00
46199;BME280;31928;52.104;10.030;2023-02-28T07:37:13;102126.59;;;4.02;51.08
46199;BME280;31928;52.104;10.030;2023-02-28T07:39:40;102130.06;;;4.02;50.99
46199;BME280;31928;52.104;10.030;2023-02-28T07:42:09;102129.38;;;4.00;51.01
46199;BME280;31928;52.104;10.030;2023-02-28T07:44:39;102128.38;;;4.01;51.23
46199;BME280;31928;52.104;10.030;2023-02-28T07:47:08;102128.28;;;4.03;51.41
46199;BME280;31928;52.104;10.030;2023-02-28T07:49:37;102123.53;;;4.06;51.33
46199;BME280;31928;52.104;10.030;2023-02-28T07:52:06;102125.34;;;4.06;51.67
46199;BME280;31928;52.104;10.030;2023-02-28T07:54:33;102124.41;;;4.07;51.64
46199;BME280;31928;52.104;10.030;2023-02-28T07:56:59;102123.16;;;4.31;50.33
46199;BME280;31928;52.104;10.030;2023-02-28T07:59:26;102131.59;;;4.16;51.67
46199;BME280;31928;52.104;10.030;2023-02-28T08:01:52;102132.28;;;4.17;51.71
46199;BME280;31928;52.104;10.030;2023-02-28T08:04:19;102134.78;;;4.19;51.48
46199;BME280;31928;52.104;10.030;2023-02-28T08:06:46;102126.69;;;4.20;51.95
46199;BME280;31928;52.104;10.030;2023-02-28T08:09:12;102134.56;;;4.22;51.70
46199;BME280;31928;52.104;10.030;2023-02-28T08:11:41;102138.88;;;4.23;51.91
46199;BME280;31928;52.104;10.030;2023-02-28T08:14:08;102132.59;;;4.24;51.67
46199;BME280;31928;52.104;10.030;2023-02-28T08:16:35;102127.03;;;4.27;51.95
46199;BME280;31928;52.104;10.030;2023-02-28T08:19:01;102133.78;;;4.31;52.02
46199;BME280;31928;52.104;10.030;2023-02-28T08:21:28;102125.41;;;4.35;51.44
46199;BME280;31928;52.104;10.030;2023-02-28T08:23:55;102134.66;;;4.41;52.44
46199;BME280;31928;52.104;10.030;2023-02-28T08:26:23;102130.53;;;4.48;52.23
46199;BME280;31928;52.104;10.030;2023-02-28T08:28:49;102123.44;;;4.58;52.36
46199;BME280;31928;52.104;10.030;2023-02-28T08:31:16;102125.19;;;4.68;52.70
46199;BME280;31928;52.104;10.030;2023-02-28T08:33:43;102131.22;;;4.79;51.92
46199;BME280;31928;52.104;10.030;2023-02-28T08:36:11;102130.19;;;4.91;52.01
46199;BME280;31928;52.104;10.030;2023-02-28T08:38:38;102136.78;;;5.06;51.67
46199;BME280;31928;52.104;10.030;2023-02-28T08:41:06;102128.88;;;5.34;50.92
46199;BME280;31928;52.104;10.030;2023-02-28T08:43:34;102138.41;;;5.37;51.21
46199;BME280;31928;52.104;10.030;2023-02-28T08:46:01;102130.19;;;5.49;50.63
46199;BME280;31928;52.104;10.030;2023-02-28T08:48:28;102132.06;;;5.77;50.17
46199;BME280;31928;52.104;10.030;2023-02-28T08:51:00;102139.91;;;5.79;50.23
46199;BME280;31928;52.104;10.030;2023-02-28T08:53:33;102138.38;;;5.86;49.13
46199;BME280;31928;52.104;10.030;2023-02-28T08:56:03;102136.56;;;5.96;48.72
46199;BME280;31928;52.104;10.030;2023-02-28T08:58:30;102136.00;;;6.01;48.68
46199;BME280;31928;52.104;10.030;2023-02-28T09:00:57;102131.94;;;6.07;48.76
46199;BME280;31928;52.104;10.030;2023-02-28T09:03:24;102135.69;;;6.14;48.65
46199;BME280;31928;52.104;10.030;2023-02-28T09:05:55;102141.28;;;6.20;48.45
46199;BME280;31928;52.104;10.030;2023-02-28T09:08:25;102141.84;;;6.24;47.26
46199;BME280;31928;52.104;10.030;2023-02-28T09:10:52;102133.88;;;6.24;46.99
46199;BME280;31928;52.104;10.030;2023-02-28T09:13:18;102138.75;;;6.28;47.07
46199;BME280;31928;52.104;10.030;2023-02-28T09:15:45;102143.50;;;6.34;46.83
46199;BME280;31928;52.104;10.030;2023-02-28T09:18:12;102135.66;;;6.42;47.30
46199;BME280;31928;52.104;10.030;2023-02-28T09:20:40;102145.19;;;6.54;46.81
46199;BME280;31928;52.104;10.030;2023-02-28T09:23:09;102152.69;;;6.68;46.88
46199;BME280;31928;52.104;10.030;2023-02-28T09:25:36;102139.75;;;6.82;47.20
46199;BME280;31928;52.104;10.030;2023-02-28T09:28:03;102139.13;;;6.98;46.80
46199;BME280;31928;52.104;10.030;2023-02-28T09:30:30;102143.53;;;7.16;46.08
46199;BME280;31928;52.104;10.030;2023-02-28T09:32:57;102147.56;;;7.47;48.02
46199;BME280;31928;52.104;10.030;2023-02-28T09:35:24;102139.47;;;7.56;45.89
46199;BME280;31928;52.104;10.030;2023-02-28T09:37:53;102142.84;;;7.75;45.36
46199;BME280;31928;52.104;10.030;2023-02-28T09:40:23;102143.47;;;8.04;47.32
46199;BME280;31928;52.104;10.030;2023-02-28T09:42:52;102146.09;;;8.14;45.42
46199;BME280;31928;52.104;10.030;2023-02-28T09:45:30;102141.25;;;8.35;45.36
46199;BME280;31928;52.104;10.030;2023-02-28T09:48:03;102137.69;;;8.51;44.35
46199;BME280;31928;52.104;10.030;2023-02-28T09:50:35;102142.84;;;8.70;43.93
46199;BME280;31928;52.104;10.030;2023-02-28T09:53:11;102141.94;;;8.87;43.97
46199;BME280;31928;52.104;10.030;2023-02-28T09:55:48;102139.84;;;9.06;43.85
46199;BME280;31928;52.104;10.030;2023-02-28T09:58:33;102147.81;;;9.24;43.62
46199;BME280;31928;52.104;10.030;2023-02-28T10:01:21;102149.19;;;9.44;44.10
46199;BME280;31928;52.104;10.030;2023-02-28T10:03:55;102143.25;;;9.65;45.33
46199;BME280;31928;52.104;10.030;2023-02-28T10:06:28;102141.94;;;9.69;42.82
46199;BME280;31928;52.104;10.030;2023-02-28T10:09:03;102136.09;;;9.82;42.10
46199;BME280;31928;52.104;10.030;2023-02-28T10:11:35;102130.41;;;9.93;41.49
46199;BME280;31928;52.104;10.030;2023-02-28T10:14:14;102133.66;;;10.04;43.01
46199;BME280;31928;52.104;10.030;2023-02-28T10:16:46;102138.00;;;10.13;41.42
46199;BME280;31928;52.104;10.030;2023-02-28T10:22:19;102134.63;;;10.43;42.61
46199;BME280;31928;52.104;10.030;2023-02-28T10:24:49;102138.28;;;10.58;39.77
46199;BME280;31928;52.104;10.030;2023-02-28T10:29:56;102135.72;;;10.88;39.89
46199;BME280;31928;52.104;10.030;2023-02-28T10:32:25;102131.81;;;10.98;38.96
46199;BME280;31928;52.104;10.030;2023-02-28T10:34:59;102126.75;;;11.11;38.24
46199;BME280;31928;52.104;10.030;2023-02-28T10:37:27;102129.06;;;11.22;36.48
46199;BME280;31928;52.104;10.030;2023-02-28T10:39:54;102125.97;;;11.33;36.65
46199;BME280;31928;52.104;10.030;2023-02-28T10:42:25;102119.56;;;11.42;37.25
46199;BME280;31928;52.104;10.030;2023-02-28T10:47:33;102117.09;;;11.63;36.68
46199;BME280;31928;52.104;10.030;2023-02-28T10:50:01;102118.72;;;11.72;36.71
46199;BME280;31928;52.104;10.030;2023-02-28T10:52:37;102120.00;;;11.84;38.08
46199;BME280;31928;52.104;10.030;2023-02-28T10:55:22;102121.91;;;11.98;39.21
46199;BME280;31928;52.104;10.030;2023-02-28T10:57:52;102122.88;;;12.04;36.08
46199;BME280;31928;52.104;10.030;2023-02-28T11:00:21;102120.59;;;12.16;36.43
46199;BME280;31928;52.104;10.030;2023-02-28T11:02:48;102116.66;;;12.26;35.35
46199;BME280;31928;52.104;10.030;2023-02-28T11:05:32;102112.78;;;12.43;38.13
46199;BME280;31928;52.104;10.030;2023-02-28T11:08:10;102114.38;;;12.52;35.18
46199;BME280;31928;52.104;10.030;2023-02-28T11:10:39;102115.16;;;12.60;35.05
46199;BME280;31928;52.104;10.030;2023-02-28T11:13:06;102114.88;;;12.70;34.91
46199;BME280;31928;52.104;10.030;2023-02-28T11:15:33;102111.91;;;12.79;34.86
46199;BME280;31928;52.104;10.030;2023-02-28T11:20:40;102100.13;;;12.95;33.10
46199;BME280;31928;52.104;10.030;2023-02-28T11:23:11;102085.56;;;13.04;34.85
46199;BME280;31928;52.104;10.030;2023-02-28T11:25:40;102087.31;;;13.11;33.28
46199;BME280;31928;52.104;10.030;2023-02-28T11:28:28;102090.00;;;13.25;35.01
46199;BME280;31928;52.104;10.030;2023-02-28T11:33:50;102078.28;;;13.33;33.95
46199;BME280;31928;52.104;10.030;2023-02-28T11:36:29;102080.06;;;13.26;32.70
46199;BME280;31928;52.104;10.030;2023-02-28T11:39:08;102072.53;;;13.21;33.31
46199;BME280;31928;52.104;10.030;2023-02-28T11:47:40;102068.00;;;13.08;33.73
46199;BME280;31928;52.104;10.030;2023-02-28T11:56:08;102068.38;;;13.19;33.32
46199;BME280;31928;52.104;10.030;2023-02-28T11:59:01;102061.09;;;13.34;34.85
46199;BME280;31928;52.104;10.030;2023-02-28T12:02:04;102058.34;;;13.48;35.13
46199;BME280;31928;52.104;10.030;2023-02-28T12:13:20;102049.66;;;13.67;31.99
46199;BME280;31928;52.104;10.030;2023-02-28T12:24:15;102042.91;;;13.78;31.66
46199;BME280;31928;52.104;10.030;2023-02-28T12:26:49;102041.28;;;13.83;29.96
46199;BME280;31928;52.104;10.030;2023-02-28T12:29:30;102038.09;;;13.94;32.07
46199;BME280;31928;52.104;10.030;2023-02-28T12:35:11;102042.47;;;14.16;32.41
46199;BME280;31928;52.104;10.030;2023-02-28T12:38:17;102040.09;;;14.34;33.93
46199;BME280;31928;52.104;10.030;2023-02-28T12:41:03;102036.59;;;14.40;32.99
46199;BME280;31928;52.104;10.030;2023-02-28T12:43:38;102034.41;;;14.49;31.20
46199;BME280;31928;52.104;10.030;2023-02-28T12:48:52;102030.19;;;14.74;32.06
46199;BME280;31928;52.104;10.030;2023-02-28T12:51:20;102031.47;;;14.85;29.37
46199;BME280;31928;52.104;10.030;2023-02-28T12:59:52;102023.78;;;15.22;28.97
46199;BME280;31928;52.104;10.030;2023-02-28T13:05:29;102013.59;;;15.24;30.36
46199;BME280;31928;52.104;10.030;2023-02-28T13:10:47;102014.06;;;15.34;34.03
46199;BME280;31928;52.104;10.030;2023-02-28T13:13:19;102013.97;;;15.14;28.08
46199;BME280;31928;52.104;10.030;2023-02-28T13:16:03;102004.41;;;15.18;30.71
46199;BME280;31928;52.104;10.030;2023-02-28T13:18:43;102006.47;;;15.16;30.11
46199;BME280;31928;52.104;10.030;2023-02-28T13:21:26;101998.78;;;15.13;30.57
46199;BME280;31928;52.104;10.030;2023-02-28T13:28:59;101981.44;;;14.95;28.38
46199;BME280;31928;52.104;10.030;2023-02-28T13:31:26;101978.56;;;14.90;27.44
46199;BME280;31928;52.104;10.030;2023-02-28T13:38:55;101977.09;;;14.94;29.25
46199;BME280;31928;52.104;10.030;2023-02-28T13:41:41;101978.16;;;15.00;30.22
46199;BME280;31928;52.104;10.030;2023-02-28T13:52:00;101957.91;;;14.76;28.36
46199;BME280;31928;52.104;10.030;2023-02-28T13:54:32;101966.41;;;14.73;27.80
46199;BME280;31928;52.104;10.030;2023-02-28T14:05:21;101967.59;;;14.64;28.45
46199;BME280;31928;52.104;10.030;2023-02-28T14:07:59;101959.72;;;14.63;29.47
46199;BME280;31928;52.104;10.030;2023-02-28T14:10:34;101961.75;;;14.54;27.74
46199;BME280;31928;52.104;10.030;2023-02-28T14:16:26;101962.16;;;14.51;29.41
46199;BME280;31928;52.104;10.030;2023-02-28T14:19:02;101963.19;;;14.50;29.52
46199;BME280;31928;52.104;10.030;2023-02-28T14:21:36;101965.50;;;14.53;29.77
46199;BME280;31928;52.104;10.030;2023-02-28T14:24:42;101965.34;;;14.68;31.36
46199;BME280;31928;52.104;10.030;2023-02-28T14:32:45;101973.25;;;14.69;30.57
46199;BME280;31928;52.104;10.030;2023-02-28T14:38:16;101972.19;;;14.64;29.16
46199;BME280;31928;52.104;10.030;2023-02-28T14:40:45;101968.44;;;14.58;28.26
46199;BME280;31928;52.104;10.030;2023-02-28T14:43:21;101968.03;;;14.61;29.40
46199;BME280;31928;52.104;10.030;2023-02-28T14:45:51;101963.44;;;14.55;28.82
46199;BME280;31928;52.104;10.030;2023-02-28T14:48:19;101972.94;;;14.51;28.34
46199;BME280;31928;52.104;10.030;2023-02-28T14:50:57;101959.69;;;14.56;30.24
46199;BME280;31928;52.104;10.030;2023-02-28T14:53:30;101957.16;;;14.48;28.81
46199;BME280;31928;52.104;10.030;2023-02-28T14:56:01;101968.13;;;14.41;27.79
46199;BME280;31928;52.104;10.030;2023-02-28T14:58:28;101971.56;;;14.62;31.77
46199;BME280;31928;52.104;10.030;2023-02-28T15:00:59;101971.75;;;14.27;28.51
46199;BME280;31928;52.104;10.030;2023-02-28T15:03:32;101968.81;;;14.22;29.92
46199;BME280;31928;52.104;10.030;2023-02-28T15:06:04;101970.66;;;14.15;28.70
46199;BME280;31928;52.104;10.030;2023-02-28T15:08:32;101961.91;;;14.13;28.54
46199;BME280;31928;52.104;10.030;2023-02-28T15:11:05;101959.22;;;14.13;28.70
46199;BME280;31928;52.104;10.030;2023-02-28T15:13:40;101955.69;;;14.12;29.61
46199;BME280;31928;52.104;10.030;2023-02-28T15:16:12;101954.75;;;14.05;28.93